N410HA UT25-KPGA
Flight info
| Callsign | N410HA |
|---|---|
| Flight time | 0h 32m |
| Altitude | 10500 |
| Route | VFR DCT MORE OR LESS |
| Aircraft | ALIA/L-VGD/C |
Departure
| Time | 2026-04-18 02:56 |
|---|---|
| Airport | Monument Valley Airport (UT25) |
Arrival
| Time | 2026-04-18 03:28 |
|---|---|
| Airport | Page Municipal Airport (KPGA) |
| Time | Latitude | Longitude | Altitude | Speed | Heading |
|---|---|---|---|---|---|
| 2026-04-18 02:49 | 37.01241 | -110.20237 | 5167 ft | 0 kts | 180° |
| 2026-04-18 02:55 | 37.01240 | -110.20238 | 5174 ft | 3 kts | 177° |
| 2026-04-18 02:55 | 37.01234 | -110.20273 | 5373 ft | 14 kts | 245° |
| 2026-04-18 02:56 | 37.01260 | -110.20428 | 5631 ft | 43 kts | 308° |
| 2026-04-18 02:56 | 37.01519 | -110.21032 | 5813 ft | 111 kts | 305° |
| 2026-04-18 02:56 | 37.02185 | -110.23184 | 6547 ft | 140 kts | 288° |
| 2026-04-18 02:57 | 37.02060 | -110.24341 | 7179 ft | 138 kts | 253° |
| 2026-04-18 02:57 | 37.01943 | -110.25483 | 7666 ft | 130 kts | 278° |
| 2026-04-18 02:57 | 37.01796 | -110.26566 | 8145 ft | 131 kts | 249° |
| 2026-04-18 02:57 | 37.01429 | -110.27530 | 8679 ft | 119 kts | 264° |
| 2026-04-18 02:58 | 37.01328 | -110.28509 | 9236 ft | 114 kts | 264° |
| 2026-04-18 02:58 | 37.01132 | -110.29442 | 9775 ft | 109 kts | 271° |
| 2026-04-18 02:58 | 37.01058 | -110.30351 | 10319 ft | 109 kts | 263° |
| 2026-04-18 02:58 | 37.00936 | -110.31290 | 10538 ft | 125 kts | 276° |
| 2026-04-18 02:59 | 37.00845 | -110.32400 | 10379 ft | 115 kts | 270° |
| 2026-04-18 02:59 | 37.00768 | -110.33337 | 10450 ft | 103 kts | 272° |
| 2026-04-18 02:59 | 37.00706 | -110.34205 | 10471 ft | 98 kts | 272° |
| 2026-04-18 02:59 | 37.00647 | -110.35051 | 10483 ft | 95 kts | 272° |
| 2026-04-18 03:00 | 37.00537 | -110.35857 | 10477 ft | 97 kts | 254° |
| 2026-04-18 03:00 | 37.00255 | -110.36613 | 10478 ft | 95 kts | 253° |
| 2026-04-18 03:00 | 36.99969 | -110.37359 | 10478 ft | 94 kts | 253° |
| 2026-04-18 03:00 | 36.99690 | -110.38088 | 10481 ft | 93 kts | 254° |
| 2026-04-18 03:01 | 36.99411 | -110.38824 | 10481 ft | 93 kts | 253° |
| 2026-04-18 03:01 | 36.99140 | -110.39547 | 10481 ft | 92 kts | 254° |
| 2026-04-18 03:01 | 36.98862 | -110.40274 | 10483 ft | 92 kts | 253° |
| 2026-04-18 03:01 | 36.98578 | -110.41021 | 10497 ft | 97 kts | 254° |
| 2026-04-18 03:02 | 36.98288 | -110.41806 | 10498 ft | 104 kts | 254° |
| 2026-04-18 03:02 | 36.97980 | -110.42667 | 10495 ft | 110 kts | 254° |
| 2026-04-18 03:02 | 36.97667 | -110.43563 | 10491 ft | 115 kts | 253° |
| 2026-04-18 03:02 | 36.97355 | -110.44514 | 10483 ft | 117 kts | 261° |
| 2026-04-18 03:03 | 36.97118 | -110.45490 | 10483 ft | 119 kts | 260° |
| 2026-04-18 03:03 | 36.96880 | -110.46496 | 10484 ft | 121 kts | 260° |
| 2026-04-18 03:03 | 36.96640 | -110.47511 | 10483 ft | 122 kts | 260° |
| 2026-04-18 03:03 | 36.96395 | -110.48540 | 10483 ft | 123 kts | 259° |
| 2026-04-18 03:04 | 36.96150 | -110.49564 | 10483 ft | 123 kts | 259° |
| 2026-04-18 03:04 | 36.95905 | -110.50591 | 10480 ft | 124 kts | 260° |
| 2026-04-18 03:04 | 36.95660 | -110.51628 | 10479 ft | 123 kts | 260° |
| 2026-04-18 03:04 | 36.95415 | -110.52652 | 10477 ft | 123 kts | 260° |
| 2026-04-18 03:05 | 36.95176 | -110.53674 | 10479 ft | 123 kts | 259° |
| 2026-04-18 03:05 | 36.94938 | -110.54694 | 10479 ft | 123 kts | 260° |
| 2026-04-18 03:05 | 36.94691 | -110.55725 | 10480 ft | 123 kts | 260° |
| 2026-04-18 03:05 | 36.94449 | -110.56751 | 10478 ft | 123 kts | 261° |
| 2026-04-18 03:06 | 36.94207 | -110.57768 | 10474 ft | 123 kts | 260° |
| 2026-04-18 03:06 | 36.93971 | -110.58793 | 10479 ft | 122 kts | 260° |
| 2026-04-18 03:06 | 36.93730 | -110.59821 | 10478 ft | 122 kts | 260° |
| 2026-04-18 03:06 | 36.93487 | -110.60847 | 10478 ft | 122 kts | 260° |
| 2026-04-18 03:07 | 36.93250 | -110.61877 | 10478 ft | 122 kts | 260° |
| 2026-04-18 03:07 | 36.93015 | -110.62897 | 10478 ft | 123 kts | 259° |
| 2026-04-18 03:07 | 36.92781 | -110.63914 | 10479 ft | 123 kts | 260° |
| 2026-04-18 03:07 | 36.92547 | -110.64949 | 10480 ft | 123 kts | 260° |
| 2026-04-18 03:08 | 36.92314 | -110.65971 | 10482 ft | 123 kts | 259° |
| 2026-04-18 03:08 | 36.92081 | -110.67001 | 10482 ft | 123 kts | 259° |
| 2026-04-18 03:08 | 36.91850 | -110.68027 | 10482 ft | 123 kts | 259° |
| 2026-04-18 03:08 | 36.91613 | -110.69053 | 10482 ft | 123 kts | 259° |
| 2026-04-18 03:09 | 36.91371 | -110.70094 | 10481 ft | 123 kts | 259° |
| 2026-04-18 03:09 | 36.91139 | -110.71119 | 10481 ft | 123 kts | 259° |
| 2026-04-18 03:09 | 36.90901 | -110.72151 | 10480 ft | 123 kts | 260° |
| 2026-04-18 03:09 | 36.90660 | -110.73191 | 10480 ft | 123 kts | 259° |
| 2026-04-18 03:10 | 36.90424 | -110.74215 | 10482 ft | 123 kts | 259° |
| 2026-04-18 03:10 | 36.90193 | -110.75243 | 10480 ft | 123 kts | 259° |
| 2026-04-18 03:10 | 36.89954 | -110.76284 | 10480 ft | 123 kts | 259° |
| 2026-04-18 03:10 | 36.89827 | -110.77312 | 10480 ft | 119 kts | 275° |
| 2026-04-18 03:11 | 36.89835 | -110.78357 | 10479 ft | 119 kts | 276° |
| 2026-04-18 03:11 | 36.89864 | -110.79384 | 10482 ft | 118 kts | 277° |
| 2026-04-18 03:11 | 36.89901 | -110.80411 | 10483 ft | 118 kts | 277° |
| 2026-04-18 03:11 | 36.89941 | -110.81432 | 10486 ft | 118 kts | 277° |
| 2026-04-18 03:12 | 36.89981 | -110.82461 | 10485 ft | 118 kts | 278° |
| 2026-04-18 03:12 | 36.90023 | -110.83495 | 10485 ft | 118 kts | 277° |
| 2026-04-18 03:12 | 36.90068 | -110.84516 | 10486 ft | 118 kts | 278° |
| 2026-04-18 03:12 | 36.90112 | -110.85535 | 10485 ft | 118 kts | 277° |
| 2026-04-18 03:13 | 36.90157 | -110.86571 | 10488 ft | 118 kts | 277° |
| 2026-04-18 03:13 | 36.90201 | -110.87588 | 10487 ft | 118 kts | 277° |
| 2026-04-18 03:13 | 36.90247 | -110.88619 | 10488 ft | 118 kts | 277° |
| 2026-04-18 03:13 | 36.90291 | -110.89636 | 10492 ft | 118 kts | 277° |
| 2026-04-18 03:14 | 36.90337 | -110.90651 | 10492 ft | 118 kts | 277° |
| 2026-04-18 03:14 | 36.90382 | -110.91682 | 10494 ft | 118 kts | 277° |
| 2026-04-18 03:14 | 36.90426 | -110.92706 | 10494 ft | 118 kts | 277° |
| 2026-04-18 03:14 | 36.90472 | -110.93742 | 10492 ft | 118 kts | 277° |
| 2026-04-18 03:15 | 36.90517 | -110.94765 | 10497 ft | 118 kts | 277° |
| 2026-04-18 03:15 | 36.90561 | -110.95787 | 10499 ft | 118 kts | 277° |
| 2026-04-18 03:15 | 36.90608 | -110.96818 | 10495 ft | 118 kts | 277° |
| 2026-04-18 03:15 | 36.90652 | -110.97833 | 10495 ft | 118 kts | 277° |
| 2026-04-18 03:16 | 36.90697 | -110.98865 | 10498 ft | 118 kts | 277° |
| 2026-04-18 03:16 | 36.90742 | -110.99895 | 10496 ft | 118 kts | 277° |
| 2026-04-18 03:16 | 36.90785 | -111.00913 | 10502 ft | 118 kts | 277° |
| 2026-04-18 03:16 | 36.90830 | -111.01936 | 10501 ft | 118 kts | 277° |
| 2026-04-18 03:17 | 36.90874 | -111.02968 | 10502 ft | 119 kts | 277° |
| 2026-04-18 03:17 | 36.90918 | -111.03992 | 10505 ft | 119 kts | 277° |
| 2026-04-18 03:17 | 36.90963 | -111.05029 | 10502 ft | 118 kts | 277° |
| 2026-04-18 03:17 | 36.91007 | -111.06055 | 10488 ft | 118 kts | 277° |
| 2026-04-18 03:18 | 36.91051 | -111.07075 | 10431 ft | 119 kts | 277° |
| 2026-04-18 03:18 | 36.91095 | -111.08118 | 10394 ft | 118 kts | 277° |
| 2026-04-18 03:18 | 36.91140 | -111.09148 | 10332 ft | 120 kts | 277° |
| 2026-04-18 03:18 | 36.91183 | -111.10184 | 10294 ft | 119 kts | 277° |
| 2026-04-18 03:19 | 36.91226 | -111.11214 | 10245 ft | 119 kts | 277° |
| 2026-04-18 03:19 | 36.91270 | -111.12251 | 10188 ft | 119 kts | 277° |
| 2026-04-18 03:19 | 36.91316 | -111.13299 | 10126 ft | 120 kts | 277° |
| 2026-04-18 03:19 | 36.91359 | -111.14333 | 10077 ft | 120 kts | 276° |
| 2026-04-18 03:20 | 36.91402 | -111.15379 | 10022 ft | 120 kts | 277° |
| 2026-04-18 03:20 | 36.91447 | -111.16417 | 9971 ft | 120 kts | 277° |
| 2026-04-18 03:20 | 36.91491 | -111.17472 | 9905 ft | 120 kts | 276° |
| 2026-04-18 03:20 | 36.91533 | -111.18496 | 9813 ft | 119 kts | 277° |
| 2026-04-18 03:21 | 36.91578 | -111.19547 | 9704 ft | 121 kts | 277° |
| 2026-04-18 03:21 | 36.91622 | -111.20592 | 9610 ft | 120 kts | 277° |
| 2026-04-18 03:21 | 36.91667 | -111.21645 | 9501 ft | 121 kts | 277° |
| 2026-04-18 03:21 | 36.91709 | -111.22697 | 9399 ft | 121 kts | 276° |
| 2026-04-18 03:22 | 36.91753 | -111.23736 | 9291 ft | 121 kts | 277° |
| 2026-04-18 03:22 | 36.91797 | -111.24795 | 9182 ft | 122 kts | 276° |
| 2026-04-18 03:22 | 36.91840 | -111.25856 | 9081 ft | 122 kts | 276° |
| 2026-04-18 03:22 | 36.91804 | -111.26918 | 8966 ft | 124 kts | 259° |
| 2026-04-18 03:23 | 36.91610 | -111.27966 | 8868 ft | 124 kts | 261° |
| 2026-04-18 03:23 | 36.91410 | -111.29022 | 8765 ft | 125 kts | 260° |
| 2026-04-18 03:23 | 36.91269 | -111.30077 | 8661 ft | 123 kts | 274° |
| 2026-04-18 03:23 | 36.91256 | -111.31143 | 8553 ft | 124 kts | 272° |
| 2026-04-18 03:24 | 36.91245 | -111.32226 | 8453 ft | 124 kts | 272° |
| 2026-04-18 03:24 | 36.91232 | -111.33298 | 8315 ft | 123 kts | 272° |
| 2026-04-18 03:24 | 36.91221 | -111.34361 | 8160 ft | 124 kts | 272° |
| 2026-04-18 03:24 | 36.91220 | -111.35448 | 8005 ft | 124 kts | 272° |
| 2026-04-18 03:25 | 36.91215 | -111.36526 | 7853 ft | 125 kts | 272° |
| 2026-04-18 03:25 | 36.91214 | -111.37606 | 7701 ft | 125 kts | 272° |
| 2026-04-18 03:25 | 36.91219 | -111.38702 | 7553 ft | 125 kts | 272° |
| 2026-04-18 03:25 | 36.91227 | -111.39784 | 7396 ft | 126 kts | 274° |
| 2026-04-18 03:26 | 36.91363 | -111.40901 | 7128 ft | 132 kts | 283° |
| 2026-04-18 03:26 | 36.91513 | -111.42030 | 6933 ft | 133 kts | 278° |
| 2026-04-18 03:26 | 36.91626 | -111.43198 | 6672 ft | 137 kts | 278° |
| 2026-04-18 03:26 | 36.91720 | -111.44371 | 6561 ft | 129 kts | 274° |
| 2026-04-18 03:27 | 36.91718 | -111.45432 | 6515 ft | 121 kts | 266° |
| 2026-04-18 03:27 | 36.91681 | -111.46445 | 6340 ft | 114 kts | 269° |
| 2026-04-18 03:27 | 36.91727 | -111.47353 | 6217 ft | 97 kts | 292° |
| 2026-04-18 03:27 | 36.92103 | -111.47848 | 6200 ft | 70 kts | 356° |
| 2026-04-18 03:28 | 36.92456 | -111.47701 | 6085 ft | 52 kts | 67° |
| 2026-04-18 03:28 | 36.92532 | -111.47235 | 5864 ft | 57 kts | 89° |
| 2026-04-18 03:28 | 36.92540 | -111.46767 | 5671 ft | 49 kts | 87° |
| 2026-04-18 03:28 | 36.92542 | -111.46332 | 5410 ft | 46 kts | 89° |
| 2026-04-18 03:29 | 36.92525 | -111.46075 | 4688 ft | 38 kts | 94° |
| 2026-04-18 03:29 | 36.92522 | -111.46012 | 4522 ft | 10 kts | 87° |
| 2026-04-18 03:29 | 36.92534 | -111.45860 | 4543 ft | 33 kts | 86° |
| 2026-04-18 03:29 | 36.92548 | -111.45541 | 4647 ft | 31 kts | 82° |
| 2026-04-18 03:30 | 36.92550 | -111.45358 | 4639 ft | 12 kts | 78° |
| 2026-04-18 03:30 | 36.92545 | -111.45290 | 4494 ft | 14 kts | 75° |
| 2026-04-18 03:30 | 36.92603 | -111.45225 | 4341 ft | 5 kts | 90° |
| 2026-04-18 03:30 | 36.92623 | -111.45212 | 4337 ft | 5 kts | 73° |
| 2026-04-18 03:31 | 36.92632 | -111.45172 | 4291 ft | 5 kts | 77° |
| 2026-04-18 03:31 | 36.92638 | -111.45153 | 4259 ft | 0 kts | 80° |